createdAt,value
2019-03-16T00:00:52.570Z,0.00
2019-03-16T00:01:57.232Z,0.00
2019-03-16T00:03:44.715Z,0.00
2019-03-16T00:04:44.716Z,0.00
2019-03-16T00:06:38.833Z,0.00
2019-03-16T00:07:38.222Z,0.00
2019-03-16T00:09:30.804Z,0.00
2019-03-16T00:10:30.156Z,0.00
2019-03-16T00:12:23.682Z,0.00
2019-03-16T00:13:23.019Z,0.00
2019-03-16T00:15:19.271Z,0.00
2019-03-16T00:16:17.411Z,0.00
2019-03-16T00:18:11.523Z,0.00
2019-03-16T00:19:11.326Z,0.00
2019-03-16T00:21:07.107Z,0.00
2019-03-16T00:22:06.019Z,0.00
2019-03-16T00:24:00.578Z,0.00
2019-03-16T00:24:58.995Z,0.00
2019-03-16T00:26:53.821Z,0.00
2019-03-16T00:27:51.835Z,0.00
2019-03-16T00:29:45.436Z,0.00
2019-03-16T00:30:45.406Z,0.00
2019-03-16T00:32:39.059Z,0.00
2019-03-16T00:33:38.157Z,0.00
2019-03-16T00:35:33.956Z,0.00
2019-03-16T00:36:32.715Z,0.00
2019-03-16T00:38:25.846Z,0.00
2019-03-16T00:39:25.768Z,0.00
2019-03-16T00:41:20.392Z,0.00
2019-03-16T00:42:19.129Z,0.00
2019-03-16T00:44:12.569Z,0.00
2019-03-16T00:45:11.706Z,0.00
2019-03-16T00:47:05.792Z,0.00
2019-03-16T00:48:05.177Z,0.00
2019-03-16T00:49:59.905Z,0.00
2019-03-16T00:50:58.097Z,0.00
2019-03-16T00:52:52.929Z,0.00
2019-03-16T00:53:51.716Z,0.00
2019-03-16T00:55:45.871Z,0.00
2019-03-16T00:56:43.980Z,0.00
2019-03-16T00:58:38.225Z,0.00
2019-03-16T00:59:37.278Z,0.00
2019-03-16T01:01:30.664Z,0.00
2019-03-16T01:02:32.671Z,0.00
2019-03-16T01:04:24.109Z,0.00
2019-03-16T01:05:24.638Z,0.00
2019-03-16T01:07:17.770Z,0.00
2019-03-16T01:08:17.592Z,0.00
2019-03-16T01:10:11.313Z,0.00
2019-03-16T01:11:10.062Z,0.00
2019-03-16T01:13:03.571Z,0.00
2019-03-16T01:14:02.914Z,0.00
2019-03-16T01:15:57.517Z,0.00
2019-03-16T01:16:56.854Z,0.00
2019-03-16T01:18:49.577Z,0.00
2019-03-16T01:19:48.729Z,0.00
2019-03-16T01:21:42.542Z,0.00
2019-03-16T01:22:42.252Z,0.00
2019-03-16T01:24:34.848Z,0.00
2019-03-16T01:25:34.431Z,0.00
2019-03-16T01:27:28.959Z,0.00
2019-03-16T01:28:28.642Z,0.00
2019-03-16T01:30:22.509Z,0.00
2019-03-16T01:31:21.233Z,0.00
2019-03-16T01:33:14.555Z,0.00
2019-03-16T01:34:14.043Z,0.00
2019-03-16T01:36:07.789Z,0.00
2019-03-16T01:37:06.685Z,0.00
2019-03-16T01:39:01.788Z,0.00
2019-03-16T01:40:00.373Z,0.00
2019-03-16T01:41:53.679Z,0.00
2019-03-16T01:42:52.617Z,0.00
2019-03-16T01:44:46.716Z,0.00
2019-03-16T01:45:47.234Z,0.00
2019-03-16T01:47:40.215Z,0.00
2019-03-16T01:48:38.496Z,0.00
2019-03-16T01:50:33.112Z,0.00
2019-03-16T01:51:32.821Z,0.00
2019-03-16T01:53:25.071Z,0.00
2019-03-16T01:54:24.970Z,0.00
2019-03-16T01:56:20.277Z,0.00
2019-03-16T01:57:18.945Z,0.00
2019-03-16T01:59:13.653Z,0.00
2019-03-16T02:00:12.054Z,0.00
2019-03-16T02:02:06.186Z,0.00
2019-03-16T02:03:05.626Z,0.00
2019-03-16T02:04:58.670Z,0.00
2019-03-16T02:05:57.654Z,0.00
2019-03-16T02:07:52.420Z,0.00
2019-03-16T02:08:52.464Z,0.00
2019-03-16T02:10:44.800Z,0.00
2019-03-16T02:11:43.627Z,0.00
2019-03-16T02:13:39.799Z,0.00
2019-03-16T02:14:38.745Z,0.00
2019-03-16T02:16:33.454Z,0.00
2019-03-16T02:17:33.329Z,0.00
2019-03-16T02:19:26.266Z,0.00
2019-03-16T02:20:26.199Z,0.00
2019-03-16T02:22:19.340Z,0.00
2019-03-16T02:23:18.192Z,0.00
2019-03-16T02:25:10.721Z,0.00
2019-03-16T02:26:12.346Z,0.00
2019-03-16T02:28:05.242Z,0.00
2019-03-16T02:29:05.151Z,0.00
2019-03-16T02:30:57.059Z,0.00
2019-03-16T02:31:56.987Z,0.00
2019-03-16T02:33:50.193Z,0.00
2019-03-16T02:34:49.971Z,0.00
2019-03-16T02:36:44.254Z,0.00
2019-03-16T02:37:42.943Z,0.00
2019-03-16T02:39:35.586Z,0.00
2019-03-16T02:40:36.032Z,0.00
2019-03-16T02:42:30.337Z,0.00
2019-03-16T02:43:30.032Z,0.00
2019-03-16T02:45:21.997Z,0.00
2019-03-16T02:46:21.891Z,0.00
2019-03-16T02:48:15.700Z,0.00
2019-03-16T02:49:16.104Z,0.00
2019-03-16T02:51:08.934Z,0.00
2019-03-16T02:52:07.284Z,0.00
2019-03-16T02:54:02.414Z,0.00
2019-03-16T02:55:03.122Z,0.00
2019-03-16T02:56:58.760Z,0.00
2019-03-16T02:57:58.296Z,0.00
2019-03-16T02:59:52.887Z,0.00
2019-03-16T03:00:51.157Z,0.00
2019-03-16T03:02:45.875Z,0.00
2019-03-16T03:03:44.017Z,0.00
2019-03-16T03:05:38.238Z,0.00
2019-03-16T03:06:39.331Z,0.00
2019-03-16T03:08:31.729Z,0.00
2019-03-16T03:09:32.161Z,0.00
2019-03-16T03:11:26.788Z,0.00
2019-03-16T03:12:26.137Z,0.00
2019-03-16T03:14:19.163Z,0.00
2019-03-16T03:15:18.020Z,0.00
2019-03-16T03:17:12.362Z,0.00
2019-03-16T03:18:12.023Z,0.00
2019-03-16T03:20:04.483Z,0.00
2019-03-16T03:21:03.776Z,0.00
2019-03-16T03:22:58.583Z,0.00
2019-03-16T03:23:58.203Z,0.00
2019-03-16T03:25:53.144Z,0.00
2019-03-16T03:26:52.442Z,0.00
2019-03-16T03:28:44.376Z,0.00
2019-03-16T03:29:44.732Z,0.00
2019-03-16T03:31:39.538Z,0.00
2019-03-16T03:32:37.777Z,0.00
2019-03-16T03:34:33.968Z,0.00
2019-03-16T03:35:33.979Z,0.00
2019-03-16T03:37:26.377Z,0.00
2019-03-16T03:38:25.123Z,0.00
2019-03-16T03:40:20.342Z,0.00
2019-03-16T03:41:19.592Z,0.00
2019-03-16T03:43:14.019Z,0.00
2019-03-16T03:44:12.628Z,0.00
2019-03-16T03:46:07.395Z,0.00
2019-03-16T03:47:05.872Z,0.00
2019-03-16T03:49:00.437Z,0.00
2019-03-16T03:49:59.621Z,0.00
2019-03-16T03:51:52.704Z,0.00
2019-03-16T03:52:53.127Z,0.00
2019-03-16T03:54:45.385Z,0.00
2019-03-16T03:55:46.107Z,0.00
2019-03-16T03:57:38.312Z,0.00
2019-03-16T03:58:38.298Z,0.00
2019-03-16T04:00:31.806Z,0.00
2019-03-16T04:01:30.907Z,0.00
2019-03-16T04:03:26.771Z,0.00
2019-03-16T04:04:24.951Z,0.00
2019-03-16T04:06:18.914Z,0.00
2019-03-16T04:07:20.068Z,0.00
2019-03-16T04:09:12.273Z,0.00
2019-03-16T04:10:11.283Z,0.00
2019-03-16T04:12:06.167Z,0.00
2019-03-16T04:13:05.982Z,0.00
2019-03-16T04:14:59.006Z,0.00
2019-03-16T04:15:58.930Z,0.00
2019-03-16T04:17:51.405Z,0.00
2019-03-16T04:18:52.147Z,0.00
2019-03-16T04:20:44.392Z,0.00
2019-03-16T04:21:44.090Z,0.00
2019-03-16T04:23:37.884Z,0.00
2019-03-16T04:24:37.029Z,0.00
2019-03-16T04:26:30.865Z,0.00
2019-03-16T04:27:30.496Z,0.00
2019-03-16T04:29:23.480Z,0.00
2019-03-16T04:30:23.781Z,0.00
2019-03-16T04:32:15.670Z,0.00
2019-03-16T04:33:14.909Z,0.00
2019-03-16T04:35:09.196Z,0.00
2019-03-16T04:36:08.083Z,0.00
2019-03-16T04:38:02.636Z,0.00
2019-03-16T04:39:00.823Z,0.00
2019-03-16T04:40:56.940Z,0.00
2019-03-16T04:41:56.963Z,0.00
2019-03-16T04:43:51.483Z,0.00
2019-03-16T04:44:51.907Z,0.00
2019-03-16T04:46:46.074Z,0.00
2019-03-16T04:47:44.717Z,0.00
2019-03-16T04:49:39.115Z,0.00
2019-03-16T04:50:37.363Z,0.00
2019-03-16T04:52:30.836Z,0.00
2019-03-16T04:53:29.896Z,0.00
2019-03-16T04:55:23.269Z,0.00
2019-03-16T04:56:22.909Z,0.00
2019-03-16T04:58:19.325Z,0.00
2019-03-16T04:59:18.750Z,0.00
2019-03-16T05:01:11.306Z,4.00
2019-03-16T05:02:10.935Z,4.00
2019-03-16T05:04:05.266Z,4.00
2019-03-16T05:05:03.506Z,8.00
2019-03-16T05:06:57.683Z,8.00
2019-03-16T05:07:57.077Z,8.00
2019-03-16T05:09:50.846Z,12.00
2019-03-16T05:10:50.877Z,12.00
2019-03-16T05:12:43.024Z,16.00
2019-03-16T05:13:43.010Z,24.00
2019-03-16T05:15:38.072Z,32.00
2019-03-16T05:16:37.997Z,36.00
2019-03-16T05:18:31.624Z,48.00
2019-03-16T05:19:29.910Z,56.00
2019-03-16T05:21:23.447Z,72.00
2019-03-16T05:22:22.769Z,84.00
2019-03-16T05:24:16.409Z,120.00
2019-03-16T05:25:16.641Z,128.00
2019-03-16T05:27:10.508Z,144.00
2019-03-16T05:28:09.185Z,176.00
2019-03-16T05:29:08.476Z,184.00
2019-03-16T05:30:09.976Z,216.00
2019-03-16T05:31:08.196Z,252.00
2019-03-16T05:32:08.145Z,272.00
2019-03-16T05:33:08.100Z,308.00
2019-03-16T05:34:08.076Z,304.00
2019-03-16T05:35:08.014Z,348.00
2019-03-16T05:36:07.965Z,368.00
2019-03-16T05:37:07.931Z,420.00
2019-03-16T05:38:07.894Z,448.00
2019-03-16T05:39:07.843Z,488.00
2019-03-16T05:40:07.809Z,564.00
2019-03-16T05:41:07.773Z,632.00
2019-03-16T05:42:07.730Z,688.00
2019-03-16T05:43:07.685Z,752.00
2019-03-16T05:44:07.657Z,784.00
2019-03-16T05:45:07.695Z,808.00
2019-03-16T05:46:07.633Z,812.00
2019-03-16T05:47:07.549Z,740.00
2019-03-16T05:48:07.476Z,800.00
2019-03-16T05:49:07.451Z,960.00
2019-03-16T05:50:07.399Z,1028.00
2019-03-16T05:51:07.348Z,1136.00
2019-03-16T05:52:07.345Z,1176.00
2019-03-16T05:53:07.294Z,1212.00
2019-03-16T05:54:07.262Z,1100.00
2019-03-16T05:55:07.203Z,988.00
2019-03-16T05:56:07.170Z,1244.00
2019-03-16T05:57:07.112Z,1384.00
2019-03-16T05:58:07.094Z,1424.00
2019-03-16T05:59:07.047Z,1580.00
2019-03-16T06:00:09.765Z,1676.00
2019-03-16T06:01:06.953Z,1664.00
2019-03-16T06:02:06.937Z,1724.00
2019-03-16T06:03:06.935Z,1800.00
2019-03-16T06:04:06.859Z,1752.00
2019-03-16T06:05:10.739Z,1704.00
2019-03-16T06:06:06.781Z,1856.00
2019-03-16T06:07:06.744Z,1988.00
2019-03-16T06:08:06.672Z,1948.00
2019-03-16T06:09:06.667Z,2040.00
2019-03-16T06:10:06.602Z,2048.00
2019-03-16T06:11:06.586Z,2108.00
2019-03-16T06:12:06.613Z,2248.00
2019-03-16T06:13:06.473Z,2364.00
2019-03-16T06:14:06.444Z,2444.00
2019-03-16T06:15:06.431Z,2688.00
2019-03-16T06:16:06.355Z,2836.00
2019-03-16T06:17:06.306Z,2704.00
2019-03-16T06:18:06.332Z,2644.00
2019-03-16T06:19:06.269Z,2628.00
2019-03-16T06:20:06.301Z,2792.00
2019-03-16T06:21:06.165Z,2964.00
2019-03-16T06:22:06.227Z,3164.00
2019-03-16T06:23:06.082Z,3436.00
2019-03-16T06:24:06.089Z,3648.00
2019-03-16T06:25:06.078Z,3644.00
2019-03-16T06:26:06.009Z,3552.00
2019-03-16T06:27:05.925Z,3604.00
2019-03-16T06:28:05.887Z,3720.00
2019-03-16T06:29:05.884Z,3844.00
2019-03-16T06:30:05.794Z,3896.00
2019-03-16T06:31:05.761Z,3876.00
2019-03-16T06:32:05.721Z,3740.00
2019-03-16T06:33:05.788Z,3644.00
2019-03-16T06:34:05.645Z,3724.00
2019-03-16T06:35:05.594Z,3988.00
2019-03-16T06:36:05.546Z,4016.00
2019-03-16T06:37:05.527Z,4064.00
2019-03-16T06:38:05.487Z,4600.00
2019-03-16T06:39:05.428Z,5264.00
2019-03-16T06:40:05.421Z,5692.00
2019-03-16T06:41:05.381Z,5924.00
2019-03-16T06:42:05.327Z,6056.00
2019-03-16T06:43:05.290Z,6260.00
2019-03-16T06:44:05.242Z,6568.00
2019-03-16T06:45:05.208Z,6912.00
2019-03-16T06:46:05.242Z,7216.00
2019-03-16T06:47:05.136Z,7344.00
2019-03-16T06:48:05.077Z,7460.00
2019-03-16T06:49:05.070Z,7764.00
2019-03-16T06:50:04.987Z,8284.00
2019-03-16T06:51:04.969Z,8936.00
2019-03-16T06:52:04.926Z,9496.00
2019-03-16T06:53:04.897Z,9528.00
2019-03-16T06:54:04.849Z,9280.00
2019-03-16T06:55:04.910Z,8532.00
2019-03-16T06:56:04.773Z,8140.00
2019-03-16T06:57:04.785Z,8460.00
2019-03-16T06:58:04.677Z,8512.00
2019-03-16T06:59:04.666Z,8240.00
2019-03-16T07:00:04.600Z,8296.00
2019-03-16T07:01:04.580Z,8324.00
2019-03-16T07:02:04.587Z,8188.00
2019-03-16T07:03:04.503Z,8180.00
2019-03-16T07:04:04.468Z,8196.00
2019-03-16T07:05:04.426Z,8248.00
2019-03-16T07:06:04.421Z,8148.00
2019-03-16T07:07:04.565Z,8120.00
2019-03-16T07:08:04.292Z,8300.00
2019-03-16T07:09:04.284Z,8596.00
2019-03-16T07:10:04.238Z,8912.00
2019-03-16T07:11:04.199Z,9212.00
2019-03-16T07:12:04.146Z,9412.00
2019-03-16T07:13:04.121Z,9972.00
2019-03-16T07:14:04.067Z,10496.00
2019-03-16T07:15:04.040Z,10592.00
2019-03-16T07:16:03.991Z,10440.00
2019-03-16T07:17:03.967Z,10332.00
2019-03-16T07:18:03.922Z,9728.00
2019-03-16T07:19:03.986Z,9124.00
2019-03-16T07:20:03.860Z,8716.00
2019-03-16T07:21:03.810Z,8464.00
2019-03-16T07:22:03.828Z,8316.00
2019-03-16T07:23:03.710Z,7712.00
2019-03-16T07:24:03.748Z,7272.00
2019-03-16T07:25:03.679Z,7324.00
2019-03-16T07:26:14.343Z,7180.00
2019-03-16T07:27:03.621Z,6832.00
2019-03-16T07:28:04.163Z,7048.00
2019-03-16T07:29:03.484Z,7636.00
2019-03-16T07:30:03.459Z,7840.00
2019-03-16T07:31:03.508Z,8112.00
2019-03-16T07:32:03.425Z,8904.00
2019-03-16T07:33:03.344Z,10088.00
2019-03-16T07:34:03.296Z,11148.00
2019-03-16T07:35:03.276Z,11628.00
2019-03-16T07:36:03.220Z,11224.00
2019-03-16T07:37:03.240Z,10292.00
2019-03-16T07:38:03.158Z,9420.00
2019-03-16T07:39:03.099Z,8880.00
2019-03-16T07:40:03.192Z,8712.00
2019-03-16T07:41:03.016Z,8600.00
2019-03-16T07:42:03.042Z,8560.00
2019-03-16T07:43:02.944Z,8568.00
2019-03-16T07:44:02.927Z,8556.00
2019-03-16T07:45:08.318Z,8584.00
2019-03-16T07:46:02.867Z,8688.00
2019-03-16T07:47:02.853Z,9456.00
2019-03-16T07:48:02.783Z,10556.00
2019-03-16T07:49:02.781Z,11692.00
2019-03-16T07:50:02.670Z,12556.00
2019-03-16T07:51:02.761Z,12784.00
2019-03-16T07:52:02.659Z,12788.00
2019-03-16T07:53:02.672Z,12700.00
2019-03-16T07:54:02.547Z,12264.00
2019-03-16T07:55:02.554Z,11776.00
2019-03-16T07:56:02.584Z,11800.00
2019-03-16T07:57:02.466Z,11896.00
2019-03-16T07:58:02.637Z,12116.00
2019-03-16T07:59:02.376Z,12556.00
2019-03-16T08:00:02.450Z,12852.00
2019-03-16T08:01:03.577Z,13360.00
2019-03-16T08:02:02.272Z,14096.00
2019-03-16T08:03:03.595Z,14832.00
2019-03-16T08:04:02.417Z,15772.00
2019-03-16T08:05:57.755Z,15492.00
2019-03-16T08:06:58.109Z,15708.00
2019-03-16T08:08:51.918Z,13424.00
2019-03-16T08:09:51.125Z,11976.00
2019-03-16T08:11:46.245Z,11108.00
2019-03-16T08:12:45.079Z,11148.00
2019-03-16T08:14:39.754Z,10696.00
2019-03-16T08:15:38.606Z,11076.00
2019-03-16T08:17:32.149Z,11612.00
2019-03-16T08:18:31.387Z,11468.00
2019-03-16T08:20:24.548Z,10692.00
2019-03-16T08:21:23.914Z,11324.00
2019-03-16T08:23:17.439Z,12928.00
2019-03-16T08:24:17.213Z,13792.00
2019-03-16T08:26:11.138Z,14336.00
2019-03-16T08:27:10.491Z,13584.00
2019-03-16T08:29:03.921Z,10628.00
2019-03-16T08:30:04.982Z,10288.00
2019-03-16T08:31:56.848Z,11184.00
2019-03-16T08:32:57.118Z,10752.00
2019-03-16T08:34:51.461Z,11092.00
2019-03-16T08:35:49.731Z,11768.00
2019-03-16T08:37:43.803Z,11220.00
2019-03-16T08:38:42.711Z,10556.00
2019-03-16T08:40:36.247Z,9252.00
2019-03-16T08:41:36.128Z,9176.00
2019-03-16T08:43:30.812Z,10424.00
2019-03-16T08:44:30.375Z,8940.00
2019-03-16T08:46:23.772Z,7388.00
2019-03-16T08:47:22.038Z,8628.00
2019-03-16T08:49:17.894Z,11204.00
2019-03-16T08:50:16.960Z,12024.00
2019-03-16T08:52:10.664Z,11168.00
2019-03-16T08:53:09.949Z,10764.00
2019-03-16T08:55:03.739Z,11468.00
2019-03-16T08:56:02.929Z,11700.00
2019-03-16T08:58:05.667Z,11576.00
2019-03-16T08:58:55.466Z,11460.00
2019-03-16T09:00:51.411Z,11648.00
2019-03-16T09:01:51.843Z,11688.00
2019-03-16T09:03:45.773Z,11632.00
2019-03-16T09:04:45.549Z,11772.00
2019-03-16T09:06:39.908Z,12956.00
2019-03-16T09:07:38.719Z,12904.00
2019-03-16T09:09:33.498Z,12504.00
2019-03-16T09:10:32.748Z,12108.00
2019-03-16T09:12:26.327Z,11188.00
2019-03-16T09:13:25.724Z,10580.00
2019-03-16T09:15:19.898Z,10152.00
2019-03-16T09:16:19.616Z,10096.00
2019-03-16T09:18:12.745Z,9996.00
2019-03-16T09:19:12.685Z,9704.00
2019-03-16T09:21:05.622Z,9008.00
2019-03-16T09:22:05.096Z,9128.00
2019-03-16T09:24:00.358Z,9420.00
2019-03-16T09:24:59.105Z,9212.00
2019-03-16T09:26:54.371Z,9752.00
2019-03-16T09:27:53.024Z,9428.00
2019-03-16T09:29:48.568Z,9596.00
2019-03-16T09:30:47.437Z,8916.00
2019-03-16T09:32:41.811Z,9380.00
2019-03-16T09:33:40.861Z,9780.00
2019-03-16T09:35:36.378Z,10292.00
2019-03-16T09:36:35.720Z,9896.00
2019-03-16T09:38:30.244Z,9936.00
2019-03-16T09:39:30.126Z,10100.00
2019-03-16T09:41:21.475Z,10240.00
2019-03-16T09:42:22.051Z,10360.00
2019-03-16T09:44:16.577Z,10964.00
2019-03-16T09:45:15.917Z,11532.00
2019-03-16T09:47:10.825Z,13444.00
2019-03-16T09:48:09.866Z,13660.00
2019-03-16T09:50:03.314Z,14332.00
2019-03-16T09:51:04.033Z,15132.00
2019-03-16T09:52:56.240Z,15568.00
2019-03-16T09:53:56.408Z,17508.00
2019-03-16T09:55:53.190Z,16628.00
2019-03-16T09:57:01.085Z,14384.00
2019-03-16T09:58:48.234Z,12200.00
2019-03-16T09:59:47.466Z,12900.00
2019-03-16T10:01:40.488Z,14608.00
2019-03-16T10:02:40.055Z,13340.00
2019-03-16T10:04:37.423Z,11000.00
2019-03-16T10:05:37.251Z,10992.00
2019-03-16T10:07:31.515Z,13104.00
2019-03-16T10:08:31.572Z,13316.00
2019-03-16T10:10:24.355Z,13428.00
2019-03-16T10:11:23.684Z,13264.00
2019-03-16T10:13:19.340Z,13160.00
2019-03-16T10:14:18.171Z,14896.00
2019-03-16T10:16:12.556Z,14692.00
2019-03-16T10:17:11.692Z,14208.00
2019-03-16T10:19:04.778Z,14228.00
2019-03-16T10:20:05.176Z,13944.00
2019-03-16T10:21:58.683Z,13540.00
2019-03-16T10:22:58.658Z,14192.00
2019-03-16T10:24:51.852Z,13440.00
2019-03-16T10:25:51.916Z,12584.00
2019-03-16T10:27:45.664Z,11900.00
2019-03-16T10:28:45.576Z,11140.00
2019-03-16T10:30:40.281Z,13564.00
2019-03-16T10:31:38.570Z,12132.00
2019-03-16T10:33:33.343Z,10808.00
2019-03-16T10:34:31.996Z,10900.00
2019-03-16T10:36:26.161Z,13336.00
2019-03-16T10:37:25.631Z,11448.00
2019-03-16T10:39:18.584Z,12732.00
2019-03-16T10:40:17.473Z,12824.00
2019-03-16T10:42:12.038Z,14620.00
2019-03-16T10:43:10.968Z,13732.00
2019-03-16T10:45:04.532Z,11144.00
2019-03-16T10:46:03.261Z,11104.00
2019-03-16T10:47:03.217Z,11960.00
2019-03-16T10:48:04.799Z,12080.00
2019-03-16T10:49:02.847Z,12900.00
2019-03-16T10:50:02.841Z,13368.00
2019-03-16T10:51:02.785Z,13260.00
2019-03-16T10:52:02.737Z,15796.00
2019-03-16T10:53:02.665Z,17744.00
2019-03-16T10:54:02.662Z,17956.00
2019-03-16T10:55:02.642Z,16032.00
2019-03-16T10:56:02.609Z,15224.00
2019-03-16T10:57:04.419Z,14160.00
2019-03-16T10:58:02.475Z,14900.00
2019-03-16T10:59:02.445Z,15096.00
2019-03-16T11:00:02.420Z,13956.00
2019-03-16T11:01:02.373Z,14592.00
2019-03-16T11:02:02.327Z,17276.00
2019-03-16T11:03:02.340Z,19136.00
2019-03-16T11:04:02.255Z,18848.00
2019-03-16T11:05:02.262Z,17092.00
2019-03-16T11:06:02.200Z,14220.00
2019-03-16T11:07:02.126Z,13500.00
2019-03-16T11:08:02.123Z,14344.00
2019-03-16T11:09:02.092Z,14964.00
2019-03-16T11:10:02.042Z,14444.00
2019-03-16T11:11:02.049Z,14784.00
2019-03-16T11:12:01.948Z,15076.00
2019-03-16T11:13:02.053Z,14848.00
2019-03-16T11:14:01.908Z,15308.00
2019-03-16T11:15:01.859Z,16508.00
2019-03-16T11:16:01.805Z,18464.00
2019-03-16T11:17:01.789Z,20160.00
2019-03-16T11:18:01.769Z,18912.00
2019-03-16T11:19:01.706Z,17520.00
2019-03-16T11:20:01.649Z,15744.00
2019-03-16T11:21:01.634Z,15744.00
2019-03-16T11:22:01.637Z,16872.00
2019-03-16T11:23:01.574Z,17784.00
2019-03-16T11:24:01.510Z,20064.00
2019-03-16T11:25:01.524Z,21152.00
2019-03-16T11:26:01.434Z,19840.00
2019-03-16T11:27:01.394Z,20800.00
2019-03-16T11:28:01.366Z,22944.00
2019-03-16T11:29:08.866Z,24736.00
2019-03-16T11:30:01.280Z,24544.00
2019-03-16T11:31:01.310Z,24288.00
2019-03-16T11:32:01.253Z,24800.00
2019-03-16T11:33:01.186Z,28288.00
2019-03-16T11:34:01.165Z,30048.00
2019-03-16T11:35:01.134Z,29504.00
2019-03-16T11:36:01.091Z,29120.00
2019-03-16T11:37:01.035Z,28832.00
2019-03-16T11:38:01.031Z,28512.00
2019-03-16T11:39:00.966Z,28064.00
2019-03-16T11:40:00.954Z,28064.00
2019-03-16T11:41:00.898Z,28384.00
2019-03-16T11:42:00.905Z,29408.00
2019-03-16T11:43:00.815Z,30656.00
2019-03-16T11:44:00.796Z,31680.00
2019-03-16T11:45:00.754Z,32288.00
2019-03-16T11:46:00.734Z,32608.00
2019-03-16T11:47:00.679Z,33120.00
2019-03-16T11:48:00.668Z,33888.00
2019-03-16T11:49:00.606Z,35200.00
2019-03-16T11:50:00.575Z,37120.00
2019-03-16T11:51:00.538Z,37792.00
2019-03-16T11:52:00.553Z,36832.00
2019-03-16T11:53:00.483Z,36032.00
2019-03-16T11:54:00.472Z,35616.00
2019-03-16T11:55:00.405Z,35424.00
2019-03-16T11:56:00.368Z,35232.00
2019-03-16T11:57:00.343Z,35232.00
2019-03-16T11:58:00.293Z,35968.00
2019-03-16T11:59:00.271Z,36576.00
2019-03-16T12:00:00.288Z,36992.00
2019-03-16T12:01:00.181Z,37280.00
2019-03-16T12:02:05.151Z,38208.00
2019-03-16T12:03:00.130Z,38912.00
2019-03-16T12:04:00.084Z,40608.00
2019-03-16T12:05:00.057Z,43040.00
2019-03-16T12:06:00.015Z,46400.00
2019-03-16T12:06:59.998Z,48320.00
2019-03-16T12:07:59.955Z,49536.00
2019-03-16T12:08:59.920Z,48672.00
2019-03-16T12:09:59.889Z,45952.00
2019-03-16T12:10:59.840Z,43488.00
2019-03-16T12:11:59.936Z,38976.00
2019-03-16T12:12:59.830Z,35840.00
2019-03-16T12:13:59.764Z,33920.00
2019-03-16T12:14:59.716Z,31424.00
2019-03-16T12:15:59.678Z,27456.00
2019-03-16T12:16:59.820Z,24032.00
2019-03-16T12:17:59.619Z,20320.00
2019-03-16T12:18:59.626Z,19936.00
2019-03-16T12:20:01.426Z,28480.00
2019-03-16T12:20:59.525Z,42208.00
2019-03-16T12:21:59.523Z,48320.00
2019-03-16T12:22:59.456Z,46912.00
2019-03-16T12:23:59.446Z,40960.00
2019-03-16T12:24:59.404Z,35648.00
2019-03-16T12:25:59.356Z,28704.00
2019-03-16T12:26:59.404Z,24672.00
2019-03-16T12:27:59.285Z,23040.00
2019-03-16T12:28:59.316Z,27104.00
2019-03-16T12:29:59.220Z,27392.00
2019-03-16T12:30:59.208Z,23744.00
2019-03-16T12:31:59.192Z,25984.00
2019-03-16T12:32:59.111Z,27872.00
2019-03-16T12:33:59.110Z,32416.00
2019-03-16T12:34:59.061Z,31232.00
2019-03-16T12:35:59.033Z,26208.00
2019-03-16T12:36:59.048Z,25984.00
2019-03-16T12:37:58.951Z,25856.00
2019-03-16T12:38:58.922Z,26720.00
2019-03-16T12:39:58.907Z,25824.00
2019-03-16T12:40:58.854Z,20096.00
2019-03-16T12:41:58.822Z,16784.00
2019-03-16T12:42:58.806Z,15360.00
2019-03-16T12:43:58.782Z,14304.00
2019-03-16T12:44:58.746Z,15880.00
2019-03-16T12:45:58.831Z,14200.00
2019-03-16T12:46:58.653Z,15176.00
2019-03-16T12:47:58.631Z,13552.00
2019-03-16T12:48:58.599Z,14752.00
2019-03-16T12:49:58.567Z,16040.00
2019-03-16T12:50:58.544Z,16408.00
2019-03-16T12:51:58.504Z,18400.00
2019-03-16T12:52:58.467Z,17184.00
2019-03-16T12:53:58.424Z,16212.00
2019-03-16T12:54:58.405Z,15988.00
2019-03-16T12:55:58.344Z,17680.00
2019-03-16T12:56:58.351Z,23200.00
2019-03-16T12:57:58.381Z,29024.00
2019-03-16T12:59:10.078Z,28480.00
2019-03-16T12:59:58.365Z,35392.00
2019-03-16T13:00:58.266Z,33472.00
2019-03-16T13:01:58.139Z,31584.00
2019-03-16T13:02:58.151Z,28864.00
2019-03-16T13:03:58.151Z,32352.00
2019-03-16T13:04:58.080Z,48160.00
2019-03-16T13:05:58.026Z,54240.00
2019-03-16T13:06:57.990Z,51584.00
2019-03-16T13:07:57.955Z,40640.00
2019-03-16T13:08:57.915Z,35328.00
2019-03-16T13:09:57.889Z,34368.00
2019-03-16T13:10:57.836Z,29152.00
2019-03-16T13:11:57.807Z,26624.00
2019-03-16T13:12:57.787Z,21536.00
2019-03-16T13:13:57.794Z,18464.00
2019-03-16T13:14:57.728Z,15668.00
2019-03-16T13:15:57.677Z,15040.00
2019-03-16T13:16:57.633Z,18976.00
2019-03-16T13:17:57.622Z,21408.00
2019-03-16T13:18:57.573Z,16872.00
2019-03-16T13:19:57.547Z,12812.00
2019-03-16T13:20:57.517Z,9196.00
2019-03-16T13:21:57.475Z,8476.00
2019-03-16T13:22:57.463Z,9260.00
2019-03-16T13:23:57.458Z,9608.00
2019-03-16T13:24:57.372Z,11020.00
2019-03-16T13:25:57.334Z,9196.00
2019-03-16T13:26:57.319Z,12676.00
2019-03-16T13:27:57.273Z,17332.00
2019-03-16T13:28:57.264Z,18720.00
2019-03-16T13:29:59.168Z,16976.00
2019-03-16T13:30:57.205Z,13732.00
2019-03-16T13:31:57.136Z,14624.00
2019-03-16T13:32:57.095Z,14536.00
2019-03-16T13:33:57.071Z,16248.00
2019-03-16T13:34:57.062Z,16120.00
2019-03-16T13:35:57.084Z,12280.00
2019-03-16T13:36:56.972Z,9592.00
2019-03-16T13:37:57.035Z,12284.00
2019-03-16T13:38:56.895Z,15228.00
2019-03-16T13:39:56.919Z,14496.00
2019-03-16T13:40:56.858Z,13000.00
2019-03-16T13:41:56.848Z,13616.00
2019-03-16T13:42:56.752Z,13716.00
2019-03-16T13:43:56.722Z,14788.00
2019-03-16T13:44:56.708Z,15232.00
2019-03-16T13:45:56.674Z,13724.00
2019-03-16T13:46:56.641Z,13672.00
2019-03-16T13:47:56.766Z,15604.00
2019-03-16T13:48:56.549Z,12972.00
2019-03-16T13:49:56.522Z,12720.00
2019-03-16T13:50:56.495Z,12472.00
2019-03-16T13:51:56.538Z,12392.00
2019-03-16T13:52:56.430Z,11656.00
2019-03-16T13:53:56.388Z,11064.00
2019-03-16T13:54:56.343Z,10612.00
2019-03-16T13:55:56.311Z,9928.00
2019-03-16T13:56:56.497Z,10524.00
2019-03-16T13:57:56.248Z,10056.00
2019-03-16T13:58:56.205Z,9484.00
2019-03-16T13:59:56.175Z,8144.00
2019-03-16T14:00:56.161Z,9480.00
2019-03-16T14:01:56.236Z,9492.00
2019-03-16T14:02:56.089Z,8780.00
2019-03-16T14:03:56.023Z,8044.00
2019-03-16T14:04:55.980Z,8224.00
2019-03-16T14:05:55.957Z,8976.00
2019-03-16T14:06:55.913Z,8644.00
2019-03-16T14:07:55.904Z,7780.00
2019-03-16T14:08:55.856Z,7340.00
2019-03-16T14:09:55.836Z,7152.00
2019-03-16T14:10:55.790Z,7384.00
2019-03-16T14:11:55.749Z,7324.00
2019-03-16T14:12:55.734Z,6828.00
2019-03-16T14:13:55.809Z,6832.00
2019-03-16T14:14:55.697Z,6284.00
2019-03-16T14:15:55.597Z,5888.00
2019-03-16T14:16:55.575Z,6660.00
2019-03-16T14:17:57.964Z,6712.00
2019-03-16T14:18:55.497Z,6108.00
2019-03-16T14:19:55.465Z,5832.00
2019-03-16T14:20:55.426Z,6156.00
2019-03-16T14:21:55.394Z,6244.00
2019-03-16T14:22:55.363Z,5872.00
2019-03-16T14:23:55.317Z,5716.00
2019-03-16T14:24:55.300Z,5980.00
2019-03-16T14:25:55.249Z,5820.00
2019-03-16T14:26:55.206Z,5756.00
2019-03-16T14:27:55.204Z,6200.00
2019-03-16T14:28:55.146Z,6092.00
2019-03-16T14:29:55.146Z,5380.00
2019-03-16T14:30:55.070Z,5152.00
2019-03-16T14:31:55.086Z,5476.00
2019-03-16T14:32:55.005Z,6968.00
2019-03-16T14:33:55.026Z,8620.00
2019-03-16T14:34:54.948Z,8200.00
2019-03-16T14:35:54.986Z,7808.00
2019-03-16T14:36:57.243Z,7388.00
2019-03-16T14:37:54.880Z,7836.00
2019-03-16T14:38:54.783Z,8504.00
2019-03-16T14:39:54.799Z,9612.00
2019-03-16T14:40:54.742Z,9812.00
2019-03-16T14:41:54.694Z,9856.00
2019-03-16T14:42:54.686Z,10256.00
2019-03-16T14:43:54.889Z,11960.00
2019-03-16T14:44:54.571Z,14180.00
2019-03-16T14:45:54.567Z,14844.00
2019-03-16T14:46:54.508Z,15432.00
2019-03-16T14:47:54.484Z,16740.00